METAR Data

Data at: 2141 UTC 01 Dec 2021

METAR for:KEEN (Keene/Hopkins Arpt, NH, US)
Text:KEEN 012056Z AUTO 21005KT 10SM SCT042 04/M05 A3009 RMK AO2 SLP200 T00391050 53013 $
Temperature: 3.9°C ( 39°F)
Dewpoint: -5.0°C ( 23°F) [RH = 52%]
Pressure (altimeter):30.09 inches Hg (1019.0 mb) [Sea level pressure: 1020.0 mb]
Winds:from the SSW (210 degrees) at 6 MPH (5 knots; 2.6 m/s)
Visibility:10 or more sm (16+ km)
Ceiling:at least 12,000 feet AGL
Clouds: scattered clouds at 4200 feet AGL
QC Flag:automated observation with no human augmentation; SOME DATA ABOVE MAY BE INACCURATE!!!"$" is an indication the sensor requires maintenance.